RPC915 RPVR-RPVA
Flight info
| Callsign | RPC915 |
|---|---|
| Flight time | 0h 33m |
| Altitude | 25000 |
| Route | BUNGA3B BUNGA DCT PONSO PONSO2R |
| Aircraft | C700/M-SBDGHM1RWXY/LB2 |
Departure
| Time | 2026-04-17 08:11 |
|---|---|
| Airport | Roxas Airport (RPVR) |
Arrival
| Time | 2026-04-17 08:45 |
|---|---|
| Airport | Daniel Z. Romualdez Airport (RPVA) |
| Time | Latitude | Longitude | Altitude | Speed | Heading |
|---|---|---|---|---|---|
| 2026-04-17 07:53 | 11.60050 | 122.74935 | 4 ft | 0 kts | 325° |
| 2026-04-17 08:07 | 11.60053 | 122.74936 | 1 ft | 1 kts | 10° |
| 2026-04-17 08:07 | 11.60065 | 122.74958 | 1 ft | 11 kts | 56° |
| 2026-04-17 08:07 | 11.60093 | 122.75035 | 2 ft | 12 kts | 92° |
| 2026-04-17 08:07 | 11.60046 | 122.75088 | 2 ft | 11 kts | 145° |
| 2026-04-17 08:08 | 11.59978 | 122.75137 | 3 ft | 13 kts | 144° |
| 2026-04-17 08:08 | 11.59892 | 122.75200 | 3 ft | 17 kts | 145° |
| 2026-04-17 08:08 | 11.59789 | 122.75276 | 4 ft | 20 kts | 143° |
| 2026-04-17 08:08 | 11.59669 | 122.75357 | 4 ft | 22 kts | 145° |
| 2026-04-17 08:09 | 11.59533 | 122.75456 | 3 ft | 25 kts | 146° |
| 2026-04-17 08:09 | 11.59383 | 122.75565 | 2 ft | 28 kts | 146° |
| 2026-04-17 08:09 | 11.59203 | 122.75693 | 2 ft | 36 kts | 143° |
| 2026-04-17 08:09 | 11.59108 | 122.75775 | 2 ft | 3 kts | 197° |
| 2026-04-17 08:10 | 11.59117 | 122.75753 | 3 ft | 0 kts | 321° |
| 2026-04-17 08:10 | 11.59128 | 122.75745 | 3 ft | 11 kts | 324° |
| 2026-04-17 08:11 | 11.59402 | 122.75549 | 2 ft | 99 kts | 325° |
| 2026-04-17 08:11 | 11.60202 | 122.74984 | 376 ft | 164 kts | 327° |
| 2026-04-17 08:11 | 11.61317 | 122.74401 | 1432 ft | 196 kts | 352° |
| 2026-04-17 08:11 | 11.62654 | 122.74823 | 2720 ft | 221 kts | 41° |
| 2026-04-17 08:12 | 11.63392 | 122.76275 | 4154 ft | 249 kts | 80° |
| 2026-04-17 08:12 | 11.63100 | 122.78073 | 5608 ft | 268 kts | 117° |
| 2026-04-17 08:12 | 11.61796 | 122.79409 | 7250 ft | 272 kts | 150° |
| 2026-04-17 08:12 | 11.59936 | 122.79817 | 8791 ft | 283 kts | 182° |
| 2026-04-17 08:13 | 11.58063 | 122.79140 | 10235 ft | 298 kts | 212° |
| 2026-04-17 08:13 | 11.56629 | 122.77511 | 11191 ft | 326 kts | 242° |
| 2026-04-17 08:13 | 11.56159 | 122.75254 | 12574 ft | 330 kts | 274° |
| 2026-04-17 08:14 | 11.56608 | 122.70594 | 15243 ft | 346 kts | 255° |
| 2026-04-17 08:14 | 11.55388 | 122.68455 | 16484 ft | 356 kts | 227° |
| 2026-04-17 08:14 | 11.53907 | 122.67338 | 17382 ft | 362 kts | 207° |
| 2026-04-17 08:14 | 11.52820 | 122.66915 | 17933 ft | 366 kts | 194° |
| 2026-04-17 08:15 | 11.50279 | 122.66822 | 19003 ft | 371 kts | 168° |
| 2026-04-17 08:15 | 11.47949 | 122.67841 | 20016 ft | 374 kts | 143° |
| 2026-04-17 08:15 | 11.46226 | 122.69806 | 21053 ft | 375 kts | 118° |
| 2026-04-17 08:15 | 11.45169 | 122.72284 | 22107 ft | 379 kts | 108° |
| 2026-04-17 08:16 | 11.44377 | 122.74827 | 23096 ft | 384 kts | 105° |
| 2026-04-17 08:16 | 11.43571 | 122.77486 | 23985 ft | 391 kts | 107° |
| 2026-04-17 08:16 | 11.42587 | 122.80090 | 24756 ft | 399 kts | 111° |
| 2026-04-17 08:16 | 11.41325 | 122.82714 | 24873 ft | 427 kts | 117° |
| 2026-04-17 08:17 | 11.39671 | 122.85345 | 24878 ft | 455 kts | 124° |
| 2026-04-17 08:17 | 11.37759 | 122.87977 | 24886 ft | 466 kts | 126° |
| 2026-04-17 08:17 | 11.35799 | 122.90629 | 24884 ft | 471 kts | 126° |
| 2026-04-17 08:17 | 11.33928 | 122.93364 | 24882 ft | 470 kts | 119° |
| 2026-04-17 08:18 | 11.32524 | 122.96367 | 24884 ft | 469 kts | 110° |
| 2026-04-17 08:18 | 11.31598 | 122.99499 | 24884 ft | 468 kts | 103° |
| 2026-04-17 08:18 | 11.30790 | 123.02756 | 24882 ft | 468 kts | 103° |
| 2026-04-17 08:18 | 11.29923 | 123.05953 | 24883 ft | 468 kts | 105° |
| 2026-04-17 08:19 | 11.29216 | 123.08439 | 24883 ft | 468 kts | 105° |
| 2026-04-17 08:19 | 11.29023 | 123.09123 | 24884 ft | 468 kts | 105° |
| 2026-04-17 08:19 | 11.28156 | 123.12318 | 24887 ft | 468 kts | 104° |
| 2026-04-17 08:20 | 11.27314 | 123.15523 | 24880 ft | 468 kts | 104° |
| 2026-04-17 08:20 | 11.26451 | 123.18719 | 24882 ft | 468 kts | 104° |
| 2026-04-17 08:20 | 11.25568 | 123.21913 | 24885 ft | 468 kts | 104° |
| 2026-04-17 08:20 | 11.24698 | 123.25108 | 24888 ft | 468 kts | 104° |
| 2026-04-17 08:21 | 11.23839 | 123.28307 | 24884 ft | 468 kts | 104° |
| 2026-04-17 08:21 | 11.22975 | 123.31503 | 24889 ft | 468 kts | 104° |
| 2026-04-17 08:21 | 11.22101 | 123.34698 | 24887 ft | 468 kts | 104° |
| 2026-04-17 08:21 | 11.21230 | 123.37891 | 24886 ft | 468 kts | 104° |
| 2026-04-17 08:22 | 11.20364 | 123.41084 | 24888 ft | 468 kts | 104° |
| 2026-04-17 08:22 | 11.19498 | 123.44279 | 24887 ft | 468 kts | 104° |
| 2026-04-17 08:22 | 11.18627 | 123.47473 | 24886 ft | 468 kts | 104° |
| 2026-04-17 08:22 | 11.17756 | 123.50665 | 24887 ft | 468 kts | 104° |
| 2026-04-17 08:23 | 11.16887 | 123.53857 | 24884 ft | 468 kts | 104° |
| 2026-04-17 08:23 | 11.16018 | 123.57051 | 24885 ft | 468 kts | 104° |
| 2026-04-17 08:23 | 11.15441 | 123.59166 | 24888 ft | 468 kts | 104° |
| 2026-04-17 08:23 | 11.14569 | 123.62358 | 24885 ft | 468 kts | 104° |
| 2026-04-17 08:24 | 11.13698 | 123.65552 | 24888 ft | 468 kts | 104° |
| 2026-04-17 08:24 | 11.12827 | 123.68743 | 24885 ft | 468 kts | 104° |
| 2026-04-17 08:24 | 11.11954 | 123.71936 | 24889 ft | 468 kts | 104° |
| 2026-04-17 08:24 | 11.11083 | 123.75126 | 24889 ft | 468 kts | 104° |
| 2026-04-17 08:25 | 11.10211 | 123.78319 | 24886 ft | 468 kts | 104° |
| 2026-04-17 08:25 | 11.09338 | 123.81507 | 24888 ft | 468 kts | 104° |
| 2026-04-17 08:25 | 11.08465 | 123.84696 | 24889 ft | 467 kts | 104° |
| 2026-04-17 08:25 | 11.07593 | 123.87885 | 24887 ft | 468 kts | 104° |
| 2026-04-17 08:26 | 11.06729 | 123.91039 | 24526 ft | 455 kts | 104° |
| 2026-04-17 08:26 | 11.05893 | 123.94084 | 23970 ft | 439 kts | 104° |
| 2026-04-17 08:26 | 11.05082 | 123.97041 | 23434 ft | 429 kts | 104° |
| 2026-04-17 08:26 | 11.04290 | 123.99939 | 22848 ft | 422 kts | 104° |
| 2026-04-17 08:27 | 11.03504 | 124.02808 | 22301 ft | 420 kts | 104° |
| 2026-04-17 08:27 | 11.02716 | 124.05673 | 21751 ft | 419 kts | 104° |
| 2026-04-17 08:27 | 11.01934 | 124.08518 | 21206 ft | 416 kts | 104° |
| 2026-04-17 08:27 | 11.01157 | 124.11350 | 20664 ft | 414 kts | 104° |
| 2026-04-17 08:28 | 11.00384 | 124.14166 | 20131 ft | 412 kts | 104° |
| 2026-04-17 08:28 | 10.99613 | 124.16969 | 19597 ft | 410 kts | 104° |
| 2026-04-17 08:28 | 10.98846 | 124.19759 | 19065 ft | 408 kts | 104° |
| 2026-04-17 08:28 | 10.98083 | 124.22535 | 18537 ft | 407 kts | 104° |
| 2026-04-17 08:29 | 10.97323 | 124.25299 | 17984 ft | 405 kts | 104° |
| 2026-04-17 08:29 | 10.96568 | 124.28042 | 17453 ft | 400 kts | 104° |
| 2026-04-17 08:29 | 10.95819 | 124.30759 | 16926 ft | 397 kts | 104° |
| 2026-04-17 08:29 | 10.95077 | 124.33453 | 16414 ft | 394 kts | 104° |
| 2026-04-17 08:30 | 10.94340 | 124.36127 | 15902 ft | 391 kts | 104° |
| 2026-04-17 08:30 | 10.93607 | 124.38782 | 15395 ft | 388 kts | 104° |
| 2026-04-17 08:30 | 10.92881 | 124.41417 | 14889 ft | 385 kts | 105° |
| 2026-04-17 08:30 | 10.92160 | 124.44032 | 14393 ft | 382 kts | 105° |
| 2026-04-17 08:31 | 10.91444 | 124.46626 | 13892 ft | 379 kts | 105° |
| 2026-04-17 08:31 | 10.90742 | 124.49166 | 13389 ft | 364 kts | 105° |
| 2026-04-17 08:31 | 10.90076 | 124.51576 | 12940 ft | 344 kts | 105° |
| 2026-04-17 08:31 | 10.89444 | 124.53864 | 12524 ft | 328 kts | 105° |
| 2026-04-17 08:32 | 10.88839 | 124.56051 | 12125 ft | 314 kts | 105° |
| 2026-04-17 08:32 | 10.88258 | 124.58152 | 11732 ft | 303 kts | 105° |
| 2026-04-17 08:32 | 10.87694 | 124.60194 | 11349 ft | 297 kts | 104° |
| 2026-04-17 08:32 | 10.87401 | 124.62253 | 10967 ft | 294 kts | 90° |
| 2026-04-17 08:33 | 10.87593 | 124.64309 | 10663 ft | 290 kts | 81° |
| 2026-04-17 08:33 | 10.87897 | 124.66342 | 10307 ft | 291 kts | 81° |
| 2026-04-17 08:33 | 10.88181 | 124.68377 | 9937 ft | 290 kts | 81° |
| 2026-04-17 08:33 | 10.88469 | 124.70399 | 9539 ft | 287 kts | 81° |
| 2026-04-17 08:34 | 10.88760 | 124.72401 | 9161 ft | 285 kts | 81° |
| 2026-04-17 08:34 | 10.89046 | 124.74387 | 8769 ft | 283 kts | 81° |
| 2026-04-17 08:34 | 10.89329 | 124.76367 | 8390 ft | 282 kts | 81° |
| 2026-04-17 08:34 | 10.89614 | 124.78338 | 8004 ft | 281 kts | 81° |
| 2026-04-17 08:35 | 10.89895 | 124.80307 | 7650 ft | 281 kts | 81° |
| 2026-04-17 08:35 | 10.90177 | 124.82271 | 7287 ft | 281 kts | 80° |
| 2026-04-17 08:35 | 10.90459 | 124.84234 | 6935 ft | 281 kts | 80° |
| 2026-04-17 08:35 | 10.90740 | 124.86201 | 6587 ft | 281 kts | 80° |
| 2026-04-17 08:36 | 10.91022 | 124.88163 | 6251 ft | 280 kts | 79° |
| 2026-04-17 08:36 | 10.91302 | 124.90121 | 5915 ft | 279 kts | 80° |
| 2026-04-17 08:36 | 10.91583 | 124.92073 | 5558 ft | 278 kts | 79° |
| 2026-04-17 08:36 | 10.91856 | 124.93996 | 5196 ft | 267 kts | 79° |
| 2026-04-17 08:37 | 10.92119 | 124.95810 | 4853 ft | 252 kts | 78° |
| 2026-04-17 08:37 | 10.92637 | 124.97456 | 4498 ft | 239 kts | 61° |
| 2026-04-17 08:37 | 10.93525 | 124.98840 | 4095 ft | 230 kts | 47° |
| 2026-04-17 08:37 | 10.94683 | 124.99920 | 3716 ft | 223 kts | 34° |
| 2026-04-17 08:38 | 10.96024 | 125.00669 | 3371 ft | 218 kts | 20° |
| 2026-04-17 08:38 | 10.97452 | 125.01061 | 3062 ft | 202 kts | 7° |
| 2026-04-17 08:38 | 10.98776 | 125.01158 | 2878 ft | 180 kts | 2° |
| 2026-04-17 08:38 | 10.99958 | 125.01241 | 2594 ft | 163 kts | 2° |
| 2026-04-17 08:39 | 11.01022 | 125.01315 | 2504 ft | 145 kts | 2° |
| 2026-04-17 08:39 | 11.02041 | 125.01383 | 2491 ft | 142 kts | 3° |
| 2026-04-17 08:39 | 11.03027 | 125.01451 | 2489 ft | 137 kts | 2° |
| 2026-04-17 08:39 | 11.03974 | 125.01514 | 2495 ft | 133 kts | 3° |
| 2026-04-17 08:40 | 11.04877 | 125.01574 | 2494 ft | 130 kts | 2° |
| 2026-04-17 08:40 | 11.05792 | 125.01635 | 2491 ft | 134 kts | 2° |
| 2026-04-17 08:40 | 11.06726 | 125.01702 | 2494 ft | 132 kts | 3° |
| 2026-04-17 08:40 | 11.07638 | 125.01754 | 2490 ft | 133 kts | 2° |
| 2026-04-17 08:41 | 11.08558 | 125.01822 | 2465 ft | 133 kts | 3° |
| 2026-04-17 08:41 | 11.09501 | 125.01885 | 2337 ft | 137 kts | 3° |
| 2026-04-17 08:41 | 11.10453 | 125.01949 | 2164 ft | 138 kts | 3° |
| 2026-04-17 08:41 | 11.11407 | 125.02015 | 1990 ft | 136 kts | 3° |
| 2026-04-17 08:42 | 11.12341 | 125.02073 | 1815 ft | 133 kts | 4° |
| 2026-04-17 08:42 | 11.13246 | 125.02130 | 1646 ft | 129 kts | 5° |
| 2026-04-17 08:42 | 11.14145 | 125.02195 | 1474 ft | 130 kts | 5° |
| 2026-04-17 08:42 | 11.15049 | 125.02253 | 1314 ft | 131 kts | 4° |
| 2026-04-17 08:43 | 11.15965 | 125.02319 | 1144 ft | 132 kts | 5° |
| 2026-04-17 08:43 | 11.16891 | 125.02379 | 987 ft | 134 kts | 4° |
| 2026-04-17 08:43 | 11.17827 | 125.02442 | 814 ft | 136 kts | 4° |
| 2026-04-17 08:43 | 11.18772 | 125.02507 | 643 ft | 136 kts | 4° |
| 2026-04-17 08:44 | 11.19732 | 125.02567 | 458 ft | 139 kts | 5° |
| 2026-04-17 08:44 | 11.20695 | 125.02628 | 295 ft | 139 kts | 4° |
| 2026-04-17 08:44 | 11.21661 | 125.02700 | 96 ft | 139 kts | 5° |
| 2026-04-17 08:44 | 11.22509 | 125.02758 | 12 ft | 103 kts | 5° |
| 2026-04-17 08:45 | 11.22937 | 125.02785 | 9 ft | 42 kts | 4° |